Time;durP1;ratioP1;P1;durP2;ratioP2;P2;SDS_P1;SDS_P2;PMS_P1;PMS_P2;Temp;Humidity;BMP_temperature;BMP_pressure;BME280_temperature;BME280_humidity;BME280_pressure;Samples;Min_cycle;Max_cycle;Signal;HPM_P1;HPM_P2
2022/09/05 00:01:16;;;;;;;5.45;5.05;;;21.30;99.90;;;;;;6184141;23;20064;-75
2022/09/05 00:04:12;;;;;;;6.28;5.80;;;21.20;99.90;;;;;;6133829;23;20015;-76
2022/09/05 00:06:46;;;;;;;6.95;5.93;;;21.30;99.90;;;;;;6157654;23;20021;-75
2022/09/05 00:09:20;;;;;;;5.90;5.50;;;21.20;99.90;;;;;;6157569;23;20088;-76
2022/09/05 00:11:53;;;;;;;5.75;5.35;;;21.30;99.90;;;;;;6183996;23;19998;-76
2022/09/05 00:14:50;;;;;;;6.20;5.57;;;21.30;99.90;;;;;;6183917;23;19997;-75
2022/09/05 00:17:33;;;;;;;6.53;5.93;;;21.30;99.90;;;;;;6184173;23;19997;-76
2022/09/05 00:20:01;;;;;;;7.22;5.68;;;21.30;99.90;;;;;;6184014;23;20055;-76
2022/09/05 00:22:38;;;;;;;6.60;6.10;;;21.30;99.90;;;;;;6184044;23;20036;-75
2022/09/05 00:25:16;;;;;;;6.90;6.18;;;21.20;99.90;;;;;;6184192;23;19997;-76
2022/09/05 00:28:01;;;;;;;7.43;6.13;;;21.30;99.90;;;;;;6184103;23;20001;-75
2022/09/05 00:30:39;;;;;;;7.68;5.90;;;21.30;99.90;;;;;;6183857;23;20453;-75
2022/09/05 00:33:14;;;;;;;6.25;5.70;;;21.30;99.90;;;;;;6183888;23;20001;-76
2022/09/05 00:36:04;;;;;;;6.72;6.22;;;21.30;99.90;;;;;;6157347;23;20449;-75
2022/09/05 00:38:31;;;;;;;6.47;5.78;;;21.30;99.90;;;;;;6183947;23;19997;-76
2022/09/05 00:41:08;;;;;;;6.85;6.13;;;21.30;99.90;;;;;;6157504;23;20005;-76
2022/09/05 00:43:36;;;;;;;6.95;6.28;;;21.30;99.90;;;;;;6183864;23;20004;-75
2022/09/05 00:46:09;;;;;;;7.47;6.90;;;21.20;99.90;;;;;;6158273;23;20008;-76
2022/09/05 00:48:50;;;;;;;7.38;6.68;;;21.30;99.90;;;;;;6184930;23;20001;-76
2022/09/05 00:51:52;;;;;;;6.50;6.10;;;21.30;99.90;;;;;;6158742;23;20001;-75
2022/09/05 00:54:23;;;;;;;11.35;6.43;;;21.30;99.90;;;;;;6138583;23;20008;-76
2022/09/05 00:57:01;;;;;;;9.48;6.32;;;21.30;99.90;;;;;;6185294;23;20005;-75
2022/09/05 00:59:39;;;;;;;7.55;6.50;;;21.30;99.90;;;;;;6159235;23;20019;-75
2022/09/05 01:02:32;;;;;;;7.50;6.25;;;21.40;99.90;;;;;;6157770;23;20374;-75
2022/09/05 01:05:20;;;;;;;7.00;6.40;;;21.40;99.90;;;;;;6162964;23;20057;-75
2022/09/05 01:08:01;;;;;;;7.25;6.72;;;21.50;99.90;;;;;;6184219;23;20001;-75
2022/09/05 01:10:41;;;;;;;7.53;6.83;;;21.40;99.90;;;;;;6184008;23;20005;-75
2022/09/05 01:13:34;;;;;;;7.35;6.75;;;21.50;99.90;;;;;;6181854;23;20009;-75
2022/09/05 01:16:28;;;;;;;7.97;7.22;;;21.50;99.90;;;;;;6183766;23;19997;-75
2022/09/05 01:19:32;;;;;;;7.32;6.75;;;21.50;99.90;;;;;;6183952;23;20001;-75
2022/09/05 01:22:40;;;;;;;6.57;6.03;;;21.60;99.90;;;;;;6183787;23;20337;-75
2022/09/05 01:25:39;;;;;;;7.93;7.22;;;21.60;99.90;;;;;;6183899;23;20011;-75
2022/09/05 01:28:26;;;;;;;7.68;7.07;;;21.60;99.90;;;;;;6183614;23;20001;-75
2022/09/05 01:31:08;;;;;;;7.40;6.80;;;21.60;99.90;;;;;;6181904;23;20009;-75
2022/09/05 01:33:42;;;;;;;7.55;7.00;;;21.60;99.90;;;;;;6183766;23;20009;-75
2022/09/05 01:36:42;;;;;;;8.13;7.00;;;21.50;99.90;;;;;;6183885;23;20016;-75
2022/09/05 01:39:42;;;;;;;9.05;7.55;;;21.50;99.90;;;;;;6183513;23;20005;-75
2022/09/05 01:42:16;;;;;;;7.05;6.47;;;21.50;99.90;;;;;;6183853;23;20005;-75
2022/09/05 01:44:50;;;;;;;7.68;7.00;;;21.40;99.90;;;;;;6182273;23;20101;-76
2022/09/05 01:47:35;;;;;;;7.72;7.03;;;21.40;99.90;;;;;;6183838;23;20037;-76
2022/09/05 01:50:01;;;;;;;6.72;6.32;;;21.40;99.90;;;;;;6183805;23;20048;-76
2022/09/05 01:52:48;;;;;;;8.13;7.10;;;21.40;99.90;;;;;;6185640;23;19997;-75
2022/09/05 01:55:47;;;;;;;7.75;7.15;;;21.40;99.90;;;;;;6185690;23;20013;-76
2022/09/05 01:58:44;;;;;;;8.02;7.32;;;21.30;99.90;;;;;;6183928;23;20001;-76
2022/09/05 02:01:29;;;;;;;7.10;6.47;;;21.40;99.90;;;;;;6185538;23;20001;-76
2022/09/05 02:04:20;;;;;;;7.88;6.60;;;21.30;99.90;;;;;;6183714;23;20001;-76
2022/09/05 02:06:55;;;;;;;7.35;6.68;;;21.20;99.90;;;;;;6185189;23;20407;-76
2022/09/05 02:09:45;;;;;;;7.35;6.60;;;21.10;99.90;;;;;;6185262;23;20746;-75
2022/09/05 02:12:34;;;;;;;6.78;6.28;;;21.10;99.90;;;;;;6185235;23;19997;-75
2022/09/05 02:15:01;;;;;;;7.47;6.72;;;21.10;99.90;;;;;;6185152;23;20027;-75
2022/09/05 02:17:40;;;;;;;7.22;6.57;;;21.10;99.90;;;;;;6183914;23;20465;-76
2022/09/05 02:20:15;;;;;;;11.48;6.90;;;21.20;99.90;;;;;;6185355;23;20002;-75
2022/09/05 02:22:51;;;;;;;7.65;6.95;;;21.10;99.90;;;;;;6185041;23;20009;-76
2022/09/05 02:25:27;;;;;;;7.88;7.22;;;21.10;99.90;;;;;;6183652;23;20352;-75
2022/09/05 02:28:13;;;;;;;8.00;7.20;;;21.10;99.90;;;;;;6185159;23;20345;-75
2022/09/05 02:30:46;;;;;;;7.60;7.10;;;21.10;99.90;;;;;;6185171;23;20009;-75
2022/09/05 02:33:29;;;;;;;9.25;7.10;;;21.10;99.90;;;;;;6185112;23;19996;-75
2022/09/05 02:36:22;;;;;;;7.63;7.03;;;21.10;99.90;;;;;;6183675;23;20418;-76
2022/09/05 02:38:58;;;;;;;8.18;7.40;;;21.10;99.90;;;;;;6183686;23;20005;-75
2022/09/05 02:41:34;;;;;;;7.43;6.93;;;21.00;99.90;;;;;;6185228;23;20008;-75
2022/09/05 02:44:22;;;;;;;11.02;7.20;;;21.00;99.90;;;;;;6185132;23;20007;-75
2022/09/05 02:46:58;;;;;;;8.35;7.38;;;20.90;99.90;;;;;;6185071;23;19990;-76
2022/09/05 02:50:10;;;;;;;8.43;7.63;;;20.90;99.90;;;;;;6185048;23;20005;-75
2022/09/05 02:52:39;;;;;;;9.70;8.27;;;20.90;99.90;;;;;;6141518;23;20008;-75
2022/09/05 02:55:15;;;;;;;8.30;7.50;;;20.90;99.90;;;;;;6183508;23;20430;-76
2022/09/05 02:57:44;;;;;;;11.93;7.25;;;20.90;99.90;;;;;;6184587;23;20064;-75
2022/09/05 03:00:20;;;;;;;7.50;7.00;;;21.00;99.90;;;;;;6183268;23;20008;-75
2022/09/05 03:03:12;;;;;;;7.68;6.97;;;21.00;99.90;;;;;;6184920;23;20005;-75
2022/09/05 03:05:49;;;;;;;;;;;21.00;99.90;;;;;;6185347;23;20397;-75
2022/09/05 03:08:26;;;;;;;6.90;6.30;;;21.00;99.90;;;;;;6158523;23;19987;-76
2022/09/05 03:11:22;;;;;;;7.05;6.55;;;20.90;99.90;;;;;;6184710;23;20012;-76
2022/09/05 03:14:03;;;;;;;7.85;7.35;;;20.90;99.90;;;;;;6184778;23;20008;-75
2022/09/05 03:16:50;;;;;;;8.52;7.82;;;20.80;99.90;;;;;;6184830;23;19997;-75
2022/09/05 03:19:18;;;;;;;8.50;7.80;;;20.90;99.90;;;;;;6158105;23;20009;-75
2022/09/05 03:22:15;;;;;;;8.20;6.85;;;20.80;99.90;;;;;;6158044;23;20292;-76
2022/09/05 03:25:05;;;;;;;7.30;6.78;;;20.80;99.90;;;;;;6184643;23;20445;-75
2022/09/05 03:27:40;;;;;;;7.18;6.78;;;20.80;99.90;;;;;;6184588;23;20001;-75
2022/09/05 03:30:15;;;;;;;7.72;6.93;;;20.80;99.90;;;;;;6184582;23;20005;-75
2022/09/05 03:33:14;;;;;;;7.38;6.88;;;20.80;99.90;;;;;;6158048;23;20001;-76
2022/09/05 03:35:55;;;;;;;7.38;6.88;;;20.80;99.90;;;;;;6157830;23;20007;-75
2022/09/05 03:38:47;;;;;;;7.68;6.90;;;20.80;99.90;;;;;;6184563;23;20052;-75
2022/09/05 03:41:37;;;;;;;7.35;6.55;;;20.80;99.90;;;;;;6184629;23;20012;-75
2022/09/05 03:44:14;;;;;;;7.65;6.53;;;20.80;99.90;;;;;;6184413;23;20000;-75
2022/09/05 03:47:22;;;;;;;6.43;6.03;;;20.80;99.90;;;;;;6157987;23;20007;-76
2022/09/05 03:50:33;;;;;;;7.47;6.78;;;20.80;99.90;;;;;;6157699;23;20388;-76
2022/09/05 03:53:32;;;;;;;7.35;6.72;;;20.80;99.90;;;;;;6035629;23;20313;-75
2022/09/05 03:56:27;;;;;;;7.75;6.72;;;20.80;99.90;;;;;;6035901;23;20091;-75
2022/09/05 03:59:30;;;;;;;7.53;6.85;;;20.80;99.90;;;;;;6137444;23;20342;-75
2022/09/05 04:02:03;;;;;;;6.88;6.45;;;20.70;99.90;;;;;;6184185;23;19997;-75
2022/09/05 04:04:32;;;;;;;7.65;6.85;;;20.70;99.90;;;;;;6183931;23;20013;-75
2022/09/05 04:07:19;;;;;;;6.32;5.80;;;20.70;99.90;;;;;;6184280;23;20006;-75
2022/09/05 04:09:52;;;;;;;7.25;6.80;;;20.60;99.90;;;;;;6183544;23;20008;-76
2022/09/05 04:12:26;;;;;;;7.10;6.60;;;20.60;99.90;;;;;;6183834;23;20008;-75
2022/09/05 04:15:04;;;;;;;6.70;6.30;;;20.60;99.90;;;;;;6183917;23;20084;-75
2022/09/05 04:17:42;;;;;;;7.30;6.80;;;20.60;99.90;;;;;;6184071;23;20076;-76
2022/09/05 04:20:28;;;;;;;7.07;6.57;;;20.60;99.90;;;;;;6157783;23;20009;-76
2022/09/05 04:23:06;;;;;;;7.75;7.03;;;20.60;99.90;;;;;;6183814;23;20001;-75
2022/09/05 04:26:02;;;;;;;7.40;6.88;;;20.50;99.90;;;;;;6184169;23;20057;-75
2022/09/05 04:28:47;;;;;;;9.75;6.55;;;20.60;99.90;;;;;;6157447;23;20319;-75
2022/09/05 04:31:40;;;;;;;7.82;7.03;;;20.60;99.90;;;;;;6157662;23;20115;-75
2022/09/05 04:34:35;;;;;;;7.50;6.90;;;20.60;99.90;;;;;;6157390;23;20005;-76
2022/09/05 04:37:04;;;;;;;8.05;6.93;;;20.60;99.90;;;;;;6181901;23;20032;-75
2022/09/05 04:39:32;;;;;;;7.78;7.18;;;20.60;99.90;;;;;;6155036;23;20280;-75
2022/09/05 04:42:04;;;;;;;7.97;6.72;;;20.50;99.90;;;;;;6154989;23;20084;-76
2022/09/05 04:44:47;;;;;;;7.93;7.20;;;20.50;99.90;;;;;;6155009;23;20378;-75
2022/09/05 04:47:26;;;;;;;12.02;8.00;;;20.60;99.90;;;;;;6181560;23;20222;-75
2022/09/05 04:50:15;;;;;;;7.43;6.72;;;20.60;99.90;;;;;;6181290;23;20028;-75
2022/09/05 04:52:48;;;;;;;7.47;6.80;;;20.60;99.90;;;;;;6181059;23;20355;-76
2022/09/05 04:55:28;;;;;;;7.65;6.88;;;20.60;99.90;;;;;;6157662;23;20005;-75
2022/09/05 04:58:05;;;;;;;7.07;6.47;;;20.60;99.90;;;;;;6182930;23;20031;-76
2022/09/05 05:00:31;;;;;;;7.47;6.93;;;20.60;99.90;;;;;;6158412;23;20012;-76
2022/09/05 05:03:03;;;;;;;7.07;6.57;;;20.70;99.90;;;;;;6158133;23;20009;-76
2022/09/05 05:05:47;;;;;;;7.80;7.20;;;20.70;99.90;;;;;;6170089;23;20040;-75
2022/09/05 05:08:51;;;;;;;7.40;6.80;;;20.70;99.90;;;;;;6182623;23;20008;-75
2022/09/05 05:11:48;;;;;;;;;;;;;;;;;;;;;
2022/09/05 05:14:24;;;;;;;8.02;7.30;;;20.70;99.90;;;;;;6063974;23;20090;-76
2022/09/05 05:17:05;;;;;;;6.97;6.43;;;20.60;99.90;;;;;;6147136;23;20063;-75
2022/09/05 05:19:39;;;;;;;8.38;7.57;;;20.70;99.90;;;;;;6183755;23;20001;-75
2022/09/05 05:22:05;;;;;;;7.78;7.18;;;20.70;99.90;;;;;;6183275;23;20001;-75
2022/09/05 05:24:35;;;;;;;7.70;7.10;;;20.70;99.90;;;;;;6184389;23;19997;-76
2022/09/05 05:27:07;;;;;;;8.77;7.43;;;20.70;99.90;;;;;;6181388;23;19997;-75
2022/09/05 05:29:48;;;;;;;;;;;20.70;99.90;;;;;;6182020;23;20410;-76
2022/09/05 05:32:23;;;;;;;7.93;7.05;;;20.70;99.90;;;;;;6181909;23;19975;-79
2022/09/05 05:34:54;;;;;;;7.15;6.75;;;20.70;99.90;;;;;;6185049;23;19997;-79
2022/09/05 05:37:31;;;;;;;7.55;7.05;;;20.80;99.90;;;;;;6182924;23;20013;-79
2022/09/05 05:40:09;;;;;;;7.15;6.65;;;20.80;99.90;;;;;;6183428;23;20378;-79
2022/09/05 05:42:40;;;;;;;7.68;6.93;;;20.80;99.90;;;;;;6183459;23;20039;-79
2022/09/05 05:45:15;;;;;;;7.00;6.35;;;20.80;99.90;;;;;;6183356;23;20345;-80
2022/09/05 05:47:52;;;;;;;7.95;6.53;;;20.80;99.90;;;;;;6183365;23;20001;-79
2022/09/05 05:50:51;;;;;;;8.50;6.93;;;20.90;99.90;;;;;;6184865;23;20001;-79
2022/09/05 05:53:58;;;;;;;7.30;6.70;;;20.90;99.90;;;;;;6184662;23;20652;-79
2022/09/05 05:56:45;;;;;;;6.78;6.28;;;21.00;99.90;;;;;;6184916;23;19997;-79
2022/09/05 05:59:33;;;;;;;7.15;6.55;;;21.00;99.90;;;;;;6185003;23;20005;-80
2022/09/05 06:02:36;;;;;;;8.10;6.60;;;21.10;99.90;;;;;;6184809;23;20027;-79
2022/09/05 06:05:23;;;;;;;6.95;6.18;;;21.20;99.90;;;;;;6184773;23;20020;-79
2022/09/05 06:07:57;;;;;;;6.32;5.80;;;21.20;99.90;;;;;;6184981;23;20429;-79
2022/09/05 06:10:29;;;;;;;6.75;6.25;;;21.30;99.90;;;;;;6184994;23;20011;-79
2022/09/05 06:13:18;;;;;;;6.75;6.10;;;21.30;99.90;;;;;;6184961;23;20001;-79
2022/09/05 06:16:32;;;;;;;7.15;6.53;;;21.40;99.90;;;;;;6158660;23;20007;-79
2022/09/05 06:19:17;;;;;;;6.97;6.35;;;21.40;99.90;;;;;;6126839;23;20008;-79
2022/09/05 06:21:50;;;;;;;6.70;6.13;;;21.50;99.90;;;;;;6158620;23;20024;-79
2022/09/05 06:24:31;;;;;;;6.63;6.10;;;21.60;99.90;;;;;;6157351;23;20472;-79
2022/09/05 06:27:27;;;;;;;6.50;6.10;;;21.70;99.90;;;;;;6180911;23;20143;-79
2022/09/05 06:30:08;;;;;;;7.18;6.47;;;21.80;99.90;;;;;;6181281;23;20421;-75
2022/09/05 06:32:53;;;;;;;8.10;6.80;;;21.80;99.90;;;;;;6181040;23;20001;-76
2022/09/05 06:35:39;;;;;;;7.28;6.57;;;21.90;99.90;;;;;;6182557;23;20024;-75
2022/09/05 06:38:25;;;;;;;6.95;6.45;;;22.00;99.90;;;;;;6182622;23;20059;-76
2022/09/05 06:41:13;;;;;;;6.47;5.97;;;22.10;99.90;;;;;;6157771;23;20087;-76
2022/09/05 06:44:14;;;;;;;6.68;6.13;;;22.10;99.90;;;;;;6184719;23;20009;-76
2022/09/05 06:46:44;;;;;;;6.20;5.78;;;22.10;99.90;;;;;;6158534;23;20009;-75
2022/09/05 06:49:24;;;;;;;6.40;5.82;;;22.10;99.90;;;;;;6158512;23;20033;-76
2022/09/05 06:52:18;;;;;;;5.55;5.25;;;22.20;99.90;;;;;;6158293;23;20009;-75
2022/09/05 06:55:07;;;;;;;8.35;5.35;;;22.30;99.90;;;;;;6184716;23;20068;-75
2022/09/05 06:57:58;;;;;;;6.72;6.18;;;22.30;99.90;;;;;;6183693;23;20001;-75
2022/09/05 07:00:42;;;;;;;7.85;6.00;;;22.40;99.90;;;;;;6184595;23;20041;-76
2022/09/05 07:03:46;;;;;;;6.10;5.65;;;22.50;99.90;;;;;;6184684;23;20072;-75
2022/09/05 07:06:43;;;;;;;6.22;5.63;;;22.60;99.90;;;;;;6178769;23;20091;-75
2022/09/05 07:09:53;;;;;;;6.18;5.35;;;22.60;99.90;;;;;;6184526;23;20001;-75
2022/09/05 07:12:18;;;;;;;5.90;5.47;;;22.70;99.90;;;;;;6158356;23;20354;-75
2022/09/05 07:15:00;;;;;;;5.65;5.15;;;22.80;99.90;;;;;;6183195;23;20001;-75
2022/09/05 07:17:26;;;;;;;5.80;4.68;;;22.90;99.90;;;;;;6184553;23;20032;-76
2022/09/05 07:19:59;;;;;;;6.57;4.75;;;22.90;99.90;;;;;;6183319;23;20384;-76
2022/09/05 07:22:34;;;;;;;5.00;4.50;;;23.00;99.90;;;;;;6182983;23;20005;-76
2022/09/05 07:25:09;;;;;;;4.63;4.32;;;23.00;99.90;;;;;;6184671;23;20001;-76
2022/09/05 07:27:49;;;;;;;4.72;3.95;;;23.10;99.90;;;;;;6183082;23;20056;-75
2022/09/05 07:30:18;;;;;;;4.03;3.45;;;23.20;99.90;;;;;;6184338;23;20333;-76
2022/09/05 07:32:48;;;;;;;5.97;3.45;;;23.20;99.90;;;;;;6182928;23;20008;-76
2022/09/05 07:35:20;;;;;;;3.88;3.50;;;23.20;99.90;;;;;;6184261;23;20047;-76
2022/09/05 07:37:58;;;;;;;4.05;3.20;;;23.30;99.90;;;;;;6182620;23;20001;-75
2022/09/05 07:40:26;;;;;;;2.90;2.67;;;23.40;99.90;;;;;;6182973;23;20012;-75
2022/09/05 07:43:09;;;;;;;2.92;2.72;;;23.50;99.90;;;;;;6184440;23;20005;-76
2022/09/05 07:45:43;;;;;;;3.33;3.13;;;23.50;99.90;;;;;;6182664;23;20463;-76
2022/09/05 07:48:15;;;;;;;3.58;2.58;;;23.50;99.90;;;;;;6181790;23;20005;-76
2022/09/05 07:51:20;;;;;;;3.40;3.03;;;23.70;99.90;;;;;;6180101;23;20011;-76
2022/09/05 07:53:47;;;;;;;2.97;2.78;;;23.70;99.90;;;;;;6165113;23;20013;-76
2022/09/05 07:56:14;;;;;;;4.45;2.80;;;23.80;99.90;;;;;;6184030;23;20550;-76
2022/09/05 07:58:51;;;;;;;3.20;2.90;;;23.80;99.90;;;;;;6182595;23;20084;-76
2022/09/05 08:01:20;;;;;;;4.63;3.10;;;23.80;99.90;;;;;;6183893;23;20005;-76
2022/09/05 08:03:53;;;;;;;3.00;2.80;;;23.80;99.90;;;;;;6183924;23;20001;-77
2022/09/05 08:06:24;;;;;;;3.33;3.03;;;23.80;99.90;;;;;;6184192;23;20017;-77
2022/09/05 08:09:03;;;;;;;3.88;3.42;;;23.90;99.90;;;;;;6183955;23;20001;-77
2022/09/05 08:11:33;;;;;;;3.53;3.33;;;24.00;99.90;;;;;;6157511;23;20080;-77
2022/09/05 08:14:26;;;;;;;7.28;3.20;;;24.00;99.90;;;;;;6183842;23;20031;-78
2022/09/05 08:16:52;;;;;;;3.70;3.22;;;24.10;99.90;;;;;;6183827;23;19997;-77
2022/09/05 08:19:32;;;;;;;5.95;4.45;;;24.20;99.90;;;;;;6157598;23;20405;-77
2022/09/05 08:21:59;;;;;;;7.95;4.55;;;24.30;99.90;;;;;;6183756;23;20001;-78
2022/09/05 08:24:46;;;;;;;4.88;4.50;;;24.40;99.90;;;;;;6183703;23;20011;-78
2022/09/05 08:27:18;;;;;;;7.07;4.40;;;24.40;99.90;;;;;;6184000;23;20032;-77
2022/09/05 08:29:53;;;;;;;3.42;3.08;;;24.40;99.90;;;;;;6157118;23;20036;-78
2022/09/05 08:32:47;;;;;;;4.68;3.85;;;24.50;99.90;;;;;;6157198;23;20499;-76
2022/09/05 08:35:30;;;;;;;4.72;3.92;;;24.60;99.90;;;;;;6179279;23;20052;-76
2022/09/05 08:37:58;;;;;;;4.45;3.45;;;24.70;99.90;;;;;;6178688;23;20073;-76
2022/09/05 08:40:34;;;;;;;4.82;4.30;;;24.80;99.90;;;;;;6151675;23;20044;-76
2022/09/05 08:43:33;;;;;;;3.97;3.78;;;24.80;99.90;;;;;;6177922;23;20012;-76
2022/09/05 08:46:06;;;;;;;4.20;3.80;;;24.80;99.90;;;;;;6179178;23;20337;-76
2022/09/05 08:48:53;;;;;;;3.45;3.15;;;24.80;99.90;;;;;;6152737;23;20009;-76
2022/09/05 08:51:52;;;;;;;4.70;4.30;;;24.80;99.90;;;;;;6151880;23;20433;-76
2022/09/05 08:54:41;;;;;;;4.30;4.00;;;24.80;99.90;;;;;;6182146;23;20332;-76
2022/09/05 08:57:31;;;;;;;4.45;4.18;;;24.80;99.90;;;;;;6139701;23;20016;-76
2022/09/05 09:00:06;;;;;;;4.07;3.75;;;24.90;99.90;;;;;;6181853;23;20597;-76
2022/09/05 09:02:50;;;;;;;5.93;4.05;;;25.00;99.90;;;;;;6181587;23;20005;-77
2022/09/05 09:05:54;;;;;;;3.78;3.47;;;25.10;99.90;;;;;;6181171;23;20098;-77
2022/09/05 09:08:32;;;;;;;4.20;3.80;;;25.30;99.90;;;;;;6124741;23;20586;-77
2022/09/05 09:11:22;;;;;;;5.05;4.32;;;25.30;99.90;;;;;;6154144;23;20005;-76
2022/09/05 09:14:13;;;;;;;4.38;3.97;;;25.30;99.90;;;;;;6181663;23;20421;-77
2022/09/05 09:17:01;;;;;;;3.70;3.50;;;25.20;99.90;;;;;;6180524;23;20076;-76
2022/09/05 09:19:45;;;;;;;3.92;3.63;;;25.30;99.90;;;;;;6181240;23;20102;-77
2022/09/05 09:22:16;;;;;;;5.20;4.60;;;25.40;99.90;;;;;;6154699;23;20009;-76
2022/09/05 09:24:47;;;;;;;;;;;25.50;99.90;;;;;;6155738;23;20005;-77
2022/09/05 09:27:13;;;;;;;4.00;3.80;;;25.50;99.90;;;;;;6156009;23;19900;-77
2022/09/05 09:29:41;;;;;;;7.30;4.30;;;25.60;99.90;;;;;;6155167;23;20012;-77
2022/09/05 09:32:16;;;;;;;4.90;4.32;;;25.60;99.90;;;;;;6181124;23;20441;-77
2022/09/05 09:35:05;;;;;;;4.32;4.10;;;25.60;99.90;;;;;;6154850;23;20005;-75
2022/09/05 09:38:05;;;;;;;4.35;4.05;;;25.60;99.90;;;;;;6180774;23;20008;-75
2022/09/05 09:41:10;;;;;;;4.28;3.78;;;25.50;99.90;;;;;;6178279;23;20027;-76
2022/09/05 09:44:04;;;;;;;4.55;4.18;;;25.60;99.90;;;;;;6183672;23;20004;-76
2022/09/05 09:46:43;;;;;;;8.02;4.25;;;25.60;99.90;;;;;;6157833;23;20059;-78
2022/09/05 09:49:21;;;;;;;4.85;4.45;;;25.70;99.90;;;;;;6185013;23;20001;-76
2022/09/05 09:51:54;;;;;;;5.70;4.65;;;25.70;99.90;;;;;;6184781;23;20398;-75
2022/09/05 09:55:06;;;;;;;5.05;4.65;;;25.80;99.90;;;;;;6158380;23;20055;-76
2022/09/05 09:58:08;;;;;;;6.25;5.43;;;25.80;99.90;;;;;;6158393;23;20028;-76
2022/09/05 10:00:54;;;;;;;6.55;6.05;;;25.80;99.90;;;;;;6036003;23;20012;-76
2022/09/05 10:03:32;;;;;;;6.30;5.70;;;25.70;99.90;;;;;;6175176;23;20089;-75
2022/09/05 10:06:19;;;;;;;7.70;6.22;;;25.70;99.90;;;;;;6184034;23;20047;-76
2022/09/05 10:08:59;;;;;;;6.50;5.88;;;25.70;99.90;;;;;;6186411;23;20080;-76
2022/09/05 10:11:39;;;;;;;6.65;6.05;;;25.70;99.90;;;;;;6186327;23;20008;-76
2022/09/05 10:14:19;;;;;;;7.47;6.80;;;25.70;99.90;;;;;;6186316;23;20051;-75
2022/09/05 10:17:04;;;;;;;8.93;5.82;;;25.80;99.90;;;;;;6159994;23;20008;-75
2022/09/05 10:19:39;;;;;;;6.25;5.20;;;25.80;99.90;;;;;;6186270;23;20001;-76
2022/09/05 10:22:32;;;;;;;6.15;5.60;;;25.80;99.90;;;;;;6159959;23;20009;-75
2022/09/05 10:25:24;;;;;;;5.95;5.50;;;25.90;99.90;;;;;;6160399;23;20005;-75
2022/09/05 10:28:06;;;;;;;5.75;5.25;;;25.90;99.90;;;;;;6186347;23;20001;-75
2022/09/05 10:30:45;;;;;;;6.28;5.28;;;26.00;99.90;;;;;;6186310;23;20036;-75
2022/09/05 10:33:28;;;;;;;5.30;4.88;;;26.10;99.90;;;;;;6159656;23;20005;-75
2022/09/05 10:36:26;;;;;;;5.78;5.38;;;26.10;99.90;;;;;;6186446;23;20001;-75
2022/09/05 10:38:59;;;;;;;5.07;4.68;;;26.10;99.90;;;;;;6186226;23;19997;-75
2022/09/05 10:41:38;;;;;;;4.85;4.45;;;26.00;99.90;;;;;;6186139;23;20393;-75
2022/09/05 10:44:08;;;;;;;5.05;4.53;;;26.10;99.90;;;;;;6186312;23;20012;-75
2022/09/05 10:46:52;;;;;;;5.07;4.18;;;26.30;99.90;;;;;;6185970;23;20033;-75
2022/09/05 10:49:26;;;;;;;4.40;4.13;;;26.40;99.90;;;;;;6186370;23;20001;-76
2022/09/05 10:51:57;;;;;;;4.03;3.72;;;26.40;99.90;;;;;;6159515;23;20005;-74
2022/09/05 10:54:37;;;;;;;4.43;4.13;;;26.50;99.90;;;;;;6185960;23;20005;-75
2022/09/05 10:57:24;;;;;;;7.18;3.60;;;26.70;99.90;;;;;;6186096;23;20072;-75
2022/09/05 11:00:06;;;;;;;4.47;3.85;;;26.70;99.90;;;;;;6186125;23;20009;-76
2022/09/05 11:02:40;;;;;;;7.53;4.20;;;26.70;99.90;;;;;;6159287;23;20088;-75
2022/09/05 11:05:14;;;;;;;6.40;3.92;;;26.80;99.90;;;;;;6166183;23;20044;-75
2022/09/05 11:07:46;;;;;;;4.95;4.03;;;26.80;99.90;;;;;;6186157;23;20505;-75
2022/09/05 11:10:27;;;;;;;4.35;3.97;;;26.80;99.90;;;;;;6184159;23;20060;-75
2022/09/05 11:12:59;;;;;;;4.53;4.00;;;26.80;99.90;;;;;;6185768;23;20077;-76
2022/09/05 11:15:53;;;;;;;4.35;4.05;;;26.80;99.90;;;;;;6182967;23;20025;-79
2022/09/05 11:18:46;;;;;;;4.07;3.78;;;26.90;99.90;;;;;;6181448;23;20005;-77
2022/09/05 11:21:27;;;;;;;4.00;3.70;;;26.80;99.90;;;;;;6182284;23;20005;-78
2022/09/05 11:24:22;;;;;;;4.32;3.92;;;26.90;99.90;;;;;;6183167;23;20001;-80
2022/09/05 11:27:16;;;;;;;4.03;3.72;;;26.90;99.90;;;;;;6183026;23;20001;-81
2022/09/05 11:29:46;;;;;;;3.63;3.33;;;27.00;99.90;;;;;;6182476;23;20048;-79
2022/09/05 11:33:03;;;;;;;4.18;3.75;;;27.10;99.90;;;;;;6182955;23;20080;-80
2022/09/05 11:35:34;;;;;;;3.95;3.75;;;27.20;99.90;;;;;;6182432;23;20611;-79
2022/09/05 11:38:21;;;;;;;5.10;3.87;;;27.30;99.90;;;;;;6182655;23;20426;-80
2022/09/05 11:40:59;;;;;;;4.85;4.25;;;27.30;99.90;;;;;;6182893;23;20009;-79
2022/09/05 11:43:47;;;;;;;4.55;4.20;;;27.40;99.90;;;;;;6182164;23;20008;-80
2022/09/05 11:46:40;;;;;;;5.57;3.28;;;27.30;99.90;;;;;;6181124;23;20005;-81
2022/09/05 11:49:09;;;;;;;5.63;4.10;;;27.40;99.90;;;;;;6180622;23;20097;-78
2022/09/05 11:51:56;;;;;;;3.78;3.58;;;27.30;99.90;;;;;;6181852;23;20080;-79
2022/09/05 11:54:59;;;;;;;4.45;3.63;;;27.50;99.90;;;;;;6182183;23;20021;-77
2022/09/05 11:57:41;;;;;;;3.65;3.42;;;27.50;99.90;;;;;;6182804;23;20029;-78
2022/09/05 12:00:40;;;;;;;3.90;3.60;;;27.60;99.90;;;;;;6180335;23;20001;-78
2022/09/05 12:03:40;;;;;;;4.25;3.65;;;27.70;99.90;;;;;;6180113;23;20390;-78
2022/09/05 12:06:26;;;;;;;4.28;3.65;;;27.70;99.90;;;;;;6179746;23;20013;-79
2022/09/05 12:09:06;;;;;;;3.90;3.60;;;27.80;99.90;;;;;;6180583;23;20008;-79
2022/09/05 12:11:35;;;;;;;4.35;3.60;;;27.80;99.90;;;;;;6153769;23;20098;-79
2022/09/05 12:14:22;;;;;;;6.13;4.15;;;27.90;99.90;;;;;;6155409;23;20005;-79
2022/09/05 12:16:54;;;;;;;7.00;4.05;;;27.90;99.90;;;;;;6155552;23;20040;-78
2022/09/05 12:19:31;;;;;;;5.97;3.88;;;28.00;99.90;;;;;;6180644;23;20012;-79
2022/09/05 12:22:21;;;;;;;4.13;3.83;;;28.00;99.90;;;;;;6154037;23;20541;-78
2022/09/05 12:25:09;;;;;;;4.18;3.88;;;28.00;99.90;;;;;;6176601;23;20032;-79
2022/09/05 12:27:38;;;;;;;7.93;4.30;;;28.10;99.90;;;;;;6176595;23;20008;-78
2022/09/05 12:30:07;;;;;;;4.18;3.80;;;28.20;99.90;;;;;;6176076;23;20001;-79
2022/09/05 12:32:54;;;;;;;4.95;3.90;;;28.30;99.90;;;;;;6177960;23;19997;-79
2022/09/05 12:35:35;;;;;;;4.90;3.72;;;28.30;99.90;;;;;;6149818;23;20001;-78
2022/09/05 12:38:17;;;;;;;4.15;3.85;;;28.30;99.90;;;;;;6180173;23;19998;-79
2022/09/05 12:41:15;;;;;;;4.05;3.75;;;28.40;99.90;;;;;;6178427;23;20009;-79
2022/09/05 12:43:49;;;;;;;5.13;4.78;;;28.40;99.90;;;;;;6179113;23;20036;-79
2022/09/05 12:46:43;;;;;;;3.65;3.45;;;28.40;99.70;;;;;;6179325;23;20093;-79
2022/09/05 12:49:25;;;;;;;4.10;3.70;;;28.50;99.90;;;;;;6163278;23;20097;-79
2022/09/05 12:52:03;;;;;;;4.25;3.92;;;28.60;99.90;;;;;;6178137;23;20472;-78
2022/09/05 12:54:42;;;;;;;4.38;3.97;;;28.60;99.90;;;;;;6178397;23;20005;-79
2022/09/05 12:57:12;;;;;;;4.65;3.88;;;28.70;99.90;;;;;;6178348;23;20047;-78
2022/09/05 12:59:42;;;;;;;3.95;3.75;;;28.60;99.10;;;;;;6178512;23;20009;-79
2022/09/05 13:02:22;;;;;;;4.05;3.67;;;28.70;99.30;;;;;;6183585;23;20027;-78
2022/09/05 13:04:57;;;;;;;4.38;4.07;;;28.80;99.00;;;;;;6183520;23;20429;-79
2022/09/05 13:07:37;;;;;;;4.03;3.67;;;28.80;98.30;;;;;;6183870;23;20055;-78
2022/09/05 13:10:13;;;;;;;4.25;3.83;;;28.80;98.60;;;;;;6157427;23;20036;-78
2022/09/05 13:12:54;;;;;;;4.10;3.80;;;28.90;99.40;;;;;;6181497;23;20004;-78
2022/09/05 13:15:29;;;;;;;8.77;3.45;;;29.00;99.20;;;;;;6179120;23;20001;-79
2022/09/05 13:18:07;;;;;;;4.47;4.18;;;29.00;98.00;;;;;;6179174;23;20084;-78
2022/09/05 13:20:50;;;;;;;4.07;3.85;;;29.10;98.20;;;;;;6178879;23;20441;-78
2022/09/05 13:23:27;;;;;;;3.83;3.25;;;29.20;99.00;;;;;;6178570;23;20008;-78
2022/09/05 13:26:04;;;;;;;15.05;4.50;;;29.30;97.50;;;;;;6178950;23;20008;-79
2022/09/05 13:28:50;;;;;;;3.90;3.67;;;29.40;97.90;;;;;;6152570;23;20005;-79
2022/09/05 13:31:42;;;;;;;3.33;3.10;;;29.40;97.40;;;;;;6177697;23;20005;-79
2022/09/05 13:34:23;;;;;;;4.00;3.60;;;29.50;97.50;;;;;;6177978;23;20157;-79
2022/09/05 13:37:09;;;;;;;;;;;29.40;96.10;;;;;;6178849;23;20001;-79
2022/09/05 13:40:00;;;;;;;4.70;4.30;;;29.40;97.20;;;;;;6178794;23;20317;-79
2022/09/05 13:42:32;;;;;;;3.90;3.60;;;29.50;95.50;;;;;;6152307;23;20036;-78
2022/09/05 13:44:59;;;;;;;5.93;3.58;;;29.60;96.30;;;;;;6153483;23;20377;-79
2022/09/05 13:47:49;;;;;;;4.75;3.50;;;29.50;95.70;;;;;;6181112;23;20008;-79
2022/09/05 13:50:21;;;;;;;2.97;2.78;;;29.50;95.60;;;;;;6179761;23;20008;-78
2022/09/05 13:52:57;;;;;;;4.57;2.78;;;29.50;94.20;;;;;;6180568;23;19997;-78
2022/09/05 13:55:37;;;;;;;4.22;3.05;;;29.50;94.20;;;;;;6180873;23;20417;-78
2022/09/05 13:58:16;;;;;;;3.58;3.38;;;29.60;94.60;;;;;;6180732;23;20007;-79
2022/09/05 14:00:42;;;;;;;3.50;3.05;;;29.60;94.20;;;;;;6179897;23;20032;-78
2022/09/05 14:03:18;;;;;;;3.55;3.33;;;29.80;96.30;;;;;;6179178;23;20422;-79
2022/09/05 14:06:24;;;;;;;4.85;3.03;;;29.90;95.40;;;;;;6180753;23;20151;-80